createdAt,value
2022-07-29T00:02:19.219Z,18.50
2022-07-29T00:04:49.183Z,18.50
2022-07-29T00:07:18.482Z,18.50
2022-07-29T00:09:50.781Z,18.50
2022-07-29T00:12:21.401Z,18.50
2022-07-29T00:14:54.381Z,18.50
2022-07-29T00:17:22.959Z,18.50
2022-07-29T00:19:52.937Z,18.40
2022-07-29T00:22:21.470Z,18.40
2022-07-29T00:24:50.702Z,18.40
2022-07-29T00:27:19.361Z,18.40
2022-07-29T00:29:47.807Z,18.40
2022-07-29T00:32:16.375Z,18.30
2022-07-29T00:35:03.044Z,18.30
2022-07-29T00:37:33.486Z,18.30
2022-07-29T00:40:01.900Z,18.30
2022-07-29T00:42:30.254Z,18.30
2022-07-29T00:44:58.755Z,18.20
2022-07-29T00:47:27.176Z,18.20
2022-07-29T00:49:55.561Z,18.20
2022-07-29T00:52:24.092Z,18.20
2022-07-29T00:54:53.908Z,18.20
2022-07-29T00:57:22.588Z,18.20
2022-07-29T00:59:51.147Z,18.20
2022-07-29T01:02:19.815Z,18.20
2022-07-29T01:04:48.248Z,18.20
2022-07-29T01:07:17.310Z,18.20
2022-07-29T01:09:47.257Z,18.10
2022-07-29T01:12:19.292Z,18.20
2022-07-29T01:14:48.485Z,18.10
2022-07-29T01:17:20.496Z,18.10
2022-07-29T01:19:51.638Z,18.10
2022-07-29T01:22:28.936Z,18.10
2022-07-29T01:25:05.894Z,18.00
2022-07-29T01:27:44.441Z,18.10
2022-07-29T01:30:15.669Z,18.00
2022-07-29T01:32:45.385Z,18.00
2022-07-29T01:35:19.014Z,18.00
2022-07-29T01:37:49.524Z,17.90
2022-07-29T01:40:21.624Z,17.90
2022-07-29T01:42:52.851Z,17.80
2022-07-29T01:45:25.793Z,17.80
2022-07-29T01:47:59.016Z,17.80
2022-07-29T01:50:30.011Z,17.80
2022-07-29T01:53:01.089Z,17.80
2022-07-29T01:55:31.203Z,17.70
2022-07-29T01:58:00.395Z,17.70
2022-07-29T02:00:30.882Z,17.80
2022-07-29T02:03:01.005Z,17.80
2022-07-29T02:05:29.952Z,17.80
2022-07-29T02:07:58.515Z,17.80
2022-07-29T02:10:32.191Z,17.70
2022-07-29T02:13:02.078Z,17.70
2022-07-29T02:15:34.504Z,17.70
2022-07-29T02:18:04.349Z,17.60
2022-07-29T02:20:33.095Z,17.60
2022-07-29T02:23:02.845Z,17.60
2022-07-29T02:25:36.831Z,17.40
2022-07-29T02:28:06.715Z,17.40
2022-07-29T02:30:38.533Z,17.40
2022-07-29T02:33:08.111Z,17.40
2022-07-29T02:35:36.672Z,17.40
2022-07-29T02:38:23.147Z,17.40
2022-07-29T02:40:52.956Z,17.30
2022-07-29T02:43:22.498Z,17.30
2022-07-29T02:45:54.195Z,17.30
2022-07-29T02:48:24.934Z,17.30
2022-07-29T02:50:56.913Z,17.30
2022-07-29T02:53:27.547Z,17.30
2022-07-29T02:55:58.784Z,17.30
2022-07-29T02:58:29.680Z,17.30
2022-07-29T03:01:00.782Z,17.30
2022-07-29T03:03:32.265Z,17.30
2022-07-29T03:06:02.396Z,17.30
2022-07-29T03:08:30.972Z,17.40
2022-07-29T03:10:59.824Z,17.30
2022-07-29T03:13:28.430Z,17.30
2022-07-29T03:15:57.849Z,17.30
2022-07-29T03:18:28.275Z,17.30
2022-07-29T03:20:56.756Z,17.30
2022-07-29T03:23:27.221Z,17.30
2022-07-29T03:26:01.665Z,17.30
2022-07-29T03:28:29.935Z,17.30
2022-07-29T03:30:58.327Z,17.20
2022-07-29T03:33:30.173Z,17.10
2022-07-29T03:35:59.143Z,17.20
2022-07-29T03:38:29.313Z,17.20
2022-07-29T03:40:59.255Z,17.10
2022-07-29T03:43:29.274Z,17.10
2022-07-29T03:46:00.285Z,17.10
2022-07-29T03:48:30.575Z,17.10
2022-07-29T03:50:59.007Z,17.10
2022-07-29T03:53:27.443Z,17.10
2022-07-29T03:55:56.801Z,17.00
2022-07-29T03:58:25.823Z,17.10
2022-07-29T04:00:55.160Z,17.20
2022-07-29T04:03:23.899Z,17.10
2022-07-29T04:06:07.322Z,17.10
2022-07-29T04:08:36.043Z,17.00
2022-07-29T04:11:04.955Z,17.00
2022-07-29T04:13:33.394Z,17.00
2022-07-29T04:16:01.795Z,17.00
2022-07-29T04:18:30.226Z,17.00
2022-07-29T04:21:01.946Z,17.00
2022-07-29T04:23:33.581Z,16.90
2022-07-29T04:26:02.292Z,16.90
2022-07-29T04:28:30.753Z,16.90
2022-07-29T04:30:59.188Z,16.90
2022-07-29T04:33:27.768Z,16.90
2022-07-29T04:35:56.129Z,16.90
2022-07-29T04:38:24.549Z,16.90
2022-07-29T04:40:54.559Z,16.90
2022-07-29T04:43:23.374Z,16.90
2022-07-29T04:45:52.157Z,16.90
2022-07-29T04:48:25.358Z,16.90
2022-07-29T04:50:56.838Z,17.00
2022-07-29T04:53:25.358Z,17.00
2022-07-29T04:55:55.281Z,17.00
2022-07-29T04:58:24.745Z,17.00
2022-07-29T05:00:53.230Z,17.00
2022-07-29T05:03:21.652Z,17.00
2022-07-29T05:05:50.001Z,17.00
2022-07-29T05:08:18.681Z,17.00
2022-07-29T05:10:47.500Z,17.20
2022-07-29T05:13:17.383Z,17.30
2022-07-29T05:15:45.969Z,17.40
2022-07-29T05:18:15.237Z,17.40
2022-07-29T05:20:43.858Z,17.50
2022-07-29T05:23:13.951Z,17.60
2022-07-29T05:25:44.325Z,17.70
2022-07-29T05:28:13.264Z,17.70
2022-07-29T05:30:43.366Z,17.60
2022-07-29T05:33:34.307Z,17.70
2022-07-29T05:36:01.135Z,17.80
2022-07-29T05:38:29.704Z,17.90
2022-07-29T05:40:59.111Z,18.00
2022-07-29T05:43:27.521Z,17.90
2022-07-29T05:45:57.932Z,17.90
2022-07-29T05:48:26.451Z,17.80
2022-07-29T05:50:55.274Z,17.80
2022-07-29T05:53:23.835Z,17.80
2022-07-29T05:55:53.076Z,17.90
2022-07-29T05:58:21.737Z,17.90
2022-07-29T06:00:50.073Z,17.90
2022-07-29T06:03:19.901Z,17.90
2022-07-29T06:05:49.291Z,18.00
2022-07-29T06:08:17.670Z,18.00
2022-07-29T06:10:46.673Z,18.10
2022-07-29T06:13:17.134Z,18.10
2022-07-29T06:15:45.678Z,18.10
2022-07-29T06:18:14.740Z,18.10
2022-07-29T06:20:44.900Z,18.20
2022-07-29T06:23:13.312Z,18.20
2022-07-29T06:25:42.640Z,18.10
2022-07-29T06:28:11.070Z,18.10
2022-07-29T06:30:39.482Z,18.00
2022-07-29T06:33:08.408Z,18.00
2022-07-29T06:35:42.291Z,18.00
2022-07-29T06:38:31.416Z,18.10
2022-07-29T06:41:03.527Z,18.10
2022-07-29T06:43:35.273Z,18.20
2022-07-29T06:46:14.944Z,18.30
2022-07-29T06:48:44.349Z,18.40
2022-07-29T06:51:13.647Z,18.50
2022-07-29T06:54:00.024Z,18.60
2022-07-29T06:56:31.766Z,18.70
2022-07-29T06:59:00.320Z,18.80
2022-07-29T07:01:30.211Z,18.90
2022-07-29T07:03:58.781Z,19.20
2022-07-29T07:06:27.311Z,19.70
2022-07-29T07:08:57.111Z,20.20
2022-07-29T07:11:25.730Z,20.30
2022-07-29T07:13:57.016Z,20.40
2022-07-29T07:16:27.821Z,20.40
2022-07-29T07:18:56.255Z,20.80
2022-07-29T07:21:24.720Z,20.90
2022-07-29T07:23:53.039Z,21.10
2022-07-29T07:26:22.949Z,20.90
2022-07-29T07:28:51.391Z,20.90
2022-07-29T07:31:19.843Z,21.10
2022-07-29T07:33:48.508Z,21.10
2022-07-29T07:36:16.899Z,21.10
2022-07-29T07:38:45.339Z,21.60
2022-07-29T07:41:13.798Z,21.70
2022-07-29T07:43:43.794Z,21.80
2022-07-29T07:46:12.352Z,21.80
2022-07-29T07:48:40.964Z,21.80
2022-07-29T07:51:09.631Z,21.90
2022-07-29T07:53:38.030Z,22.20
2022-07-29T07:56:12.473Z,22.30
2022-07-29T07:58:41.350Z,22.20
2022-07-29T08:01:11.397Z,22.30
2022-07-29T08:03:40.277Z,22.40
2022-07-29T08:06:09.939Z,22.50
2022-07-29T08:08:38.420Z,22.60
2022-07-29T08:11:09.707Z,22.60
2022-07-29T08:13:39.023Z,22.70
2022-07-29T08:16:18.223Z,22.90
2022-07-29T08:18:48.550Z,22.90
2022-07-29T08:21:17.493Z,22.90
2022-07-29T08:23:57.991Z,22.90
2022-07-29T08:26:28.317Z,23.00
2022-07-29T08:28:56.790Z,23.10
2022-07-29T08:31:27.286Z,23.30
2022-07-29T08:33:57.503Z,23.40
2022-07-29T08:36:27.297Z,23.30
2022-07-29T08:38:55.629Z,23.30
2022-07-29T08:41:24.429Z,23.30
2022-07-29T08:43:53.510Z,23.40
2022-07-29T08:46:22.147Z,23.30
2022-07-29T08:48:50.886Z,23.40
2022-07-29T08:51:22.339Z,23.60
2022-07-29T08:53:51.730Z,23.80
2022-07-29T08:56:21.861Z,24.10
2022-07-29T08:58:52.382Z,24.40
2022-07-29T09:01:35.882Z,24.40
2022-07-29T09:04:06.538Z,24.40
2022-07-29T09:06:39.270Z,24.40
2022-07-29T09:09:07.814Z,24.40
2022-07-29T09:11:36.400Z,24.40
2022-07-29T09:14:05.070Z,24.60
2022-07-29T09:17:00.885Z,24.70
2022-07-29T09:19:30.849Z,24.70
2022-07-29T09:22:03.187Z,24.80
2022-07-29T09:24:40.875Z,25.20
2022-07-29T09:27:27.627Z,25.30
2022-07-29T09:30:00.423Z,25.00
2022-07-29T09:32:29.391Z,25.10
2022-07-29T09:35:16.170Z,24.90
2022-07-29T09:37:46.410Z,24.90
2022-07-29T09:40:17.093Z,25.10
2022-07-29T09:42:45.730Z,25.10
2022-07-29T09:45:14.382Z,25.40
2022-07-29T09:47:46.065Z,25.60
2022-07-29T09:50:15.613Z,25.80
2022-07-29T09:52:49.841Z,25.80
2022-07-29T09:55:19.777Z,26.00
2022-07-29T09:57:48.512Z,26.00
2022-07-29T10:00:19.073Z,26.10
2022-07-29T10:02:48.143Z,26.40
2022-07-29T10:05:21.631Z,26.30
2022-07-29T10:07:54.203Z,26.10
2022-07-29T10:10:27.851Z,26.00
2022-07-29T10:12:57.180Z,26.00
2022-07-29T10:15:27.142Z,26.20
2022-07-29T10:17:56.220Z,26.30
2022-07-29T10:20:25.112Z,26.10
2022-07-29T10:22:55.280Z,26.20
2022-07-29T10:25:24.060Z,26.40
2022-07-29T10:27:53.463Z,26.60
2022-07-29T10:30:23.051Z,26.80
2022-07-29T10:33:00.123Z,27.00
2022-07-29T10:35:41.319Z,27.00
2022-07-29T10:38:17.953Z,27.00
2022-07-29T10:41:08.661Z,26.80
2022-07-29T10:43:39.341Z,26.40
2022-07-29T10:46:11.295Z,26.80
2022-07-29T10:49:06.551Z,27.00
2022-07-29T10:51:56.018Z,27.10
2022-07-29T10:54:39.711Z,27.10
2022-07-29T10:57:21.715Z,27.00
2022-07-29T11:00:10.151Z,27.00
2022-07-29T11:02:52.366Z,27.00
2022-07-29T11:05:21.784Z,27.10
2022-07-29T11:08:09.493Z,27.20
2022-07-29T11:10:42.992Z,27.00
2022-07-29T11:13:14.615Z,27.10
2022-07-29T11:15:55.240Z,27.30
2022-07-29T11:18:24.007Z,27.60
2022-07-29T11:20:54.941Z,27.90
2022-07-29T11:23:34.050Z,27.80
2022-07-29T11:26:23.311Z,27.70
2022-07-29T11:28:56.501Z,27.60
2022-07-29T11:31:35.068Z,27.70
2022-07-29T11:34:20.814Z,27.90
2022-07-29T11:37:07.941Z,27.90
2022-07-29T11:39:37.681Z,27.80
2022-07-29T11:42:28.322Z,27.90
2022-07-29T11:45:43.189Z,27.90
2022-07-29T11:48:29.687Z,28.10
2022-07-29T11:50:51.912Z,28.40
2022-07-29T11:53:20.160Z,28.20
2022-07-29T11:55:55.990Z,28.00
2022-07-29T11:58:25.924Z,28.10
2022-07-29T12:00:56.688Z,28.40
2022-07-29T12:03:35.285Z,28.70
2022-07-29T12:06:07.961Z,28.70
2022-07-29T12:08:43.844Z,28.40
2022-07-29T12:11:22.990Z,28.40
2022-07-29T12:13:53.322Z,28.50
2022-07-29T12:16:29.533Z,28.50
2022-07-29T12:18:59.333Z,28.70
2022-07-29T12:21:28.857Z,28.80
2022-07-29T12:24:03.505Z,28.40
2022-07-29T12:26:35.708Z,28.20
2022-07-29T12:29:04.340Z,28.30
2022-07-29T12:31:43.216Z,28.60
2022-07-29T12:34:14.086Z,29.00
2022-07-29T12:36:43.262Z,29.20
2022-07-29T12:39:12.534Z,29.20
2022-07-29T12:41:41.021Z,29.00
2022-07-29T12:44:09.665Z,28.60
2022-07-29T12:46:38.099Z,28.60
2022-07-29T12:49:10.531Z,28.40
2022-07-29T12:51:39.830Z,28.20
2022-07-29T12:54:09.501Z,28.30
2022-07-29T12:56:45.569Z,28.20
2022-07-29T12:59:15.181Z,28.40
2022-07-29T13:01:43.890Z,28.50
2022-07-29T13:04:13.852Z,28.60
2022-07-29T13:06:45.736Z,28.50
2022-07-29T13:09:15.021Z,28.60
2022-07-29T13:11:48.322Z,28.50
2022-07-29T13:14:32.846Z,28.40
2022-07-29T13:17:05.967Z,28.40
2022-07-29T13:19:37.679Z,28.60
2022-07-29T13:22:06.885Z,28.60
2022-07-29T13:24:35.552Z,28.50
2022-07-29T13:27:05.617Z,28.50
2022-07-29T13:29:34.769Z,28.60
2022-07-29T13:32:03.320Z,28.80
2022-07-29T13:34:32.258Z,28.70
2022-07-29T13:37:01.997Z,28.70
2022-07-29T13:39:31.277Z,28.70
2022-07-29T13:42:00.472Z,28.70
2022-07-29T13:44:29.065Z,28.60
2022-07-29T13:46:57.564Z,28.60
2022-07-29T13:49:26.304Z,28.60
2022-07-29T13:51:54.768Z,28.70
2022-07-29T13:54:24.980Z,28.60
2022-07-29T13:56:55.772Z,28.60
2022-07-29T13:59:24.149Z,28.50
2022-07-29T14:01:52.719Z,28.40
2022-07-29T14:04:21.293Z,28.40
2022-07-29T14:06:50.721Z,28.50
2022-07-29T14:09:19.826Z,28.30
2022-07-29T14:11:51.343Z,28.40
2022-07-29T14:14:19.806Z,28.40
2022-07-29T14:16:52.215Z,28.30
2022-07-29T14:19:20.949Z,28.40
2022-07-29T14:21:49.322Z,28.50
2022-07-29T14:24:23.094Z,28.40
2022-07-29T14:26:53.896Z,28.50
2022-07-29T14:29:22.462Z,28.50
2022-07-29T14:31:51.305Z,28.40
2022-07-29T14:34:19.778Z,28.20
2022-07-29T14:36:48.239Z,28.30
2022-07-29T14:39:17.511Z,28.30
2022-07-29T14:41:45.910Z,28.30
2022-07-29T14:44:15.748Z,28.30
2022-07-29T14:46:44.222Z,28.30
2022-07-29T14:49:17.055Z,28.20
2022-07-29T14:51:45.639Z,28.20
2022-07-29T14:54:14.030Z,28.30
2022-07-29T14:56:46.543Z,28.30
2022-07-29T14:59:22.542Z,28.30
2022-07-29T15:01:51.256Z,28.30
2022-07-29T15:04:20.648Z,28.30
2022-07-29T15:06:49.049Z,28.20
2022-07-29T15:09:17.809Z,28.20
2022-07-29T15:11:46.188Z,28.20
2022-07-29T15:14:14.659Z,28.30
2022-07-29T15:16:47.989Z,28.30
2022-07-29T15:19:16.744Z,28.30
2022-07-29T15:21:48.454Z,28.30
2022-07-29T15:24:28.052Z,28.30
2022-07-29T15:26:57.772Z,28.40
2022-07-29T15:29:26.173Z,28.30
2022-07-29T15:31:56.915Z,28.40
2022-07-29T15:34:25.653Z,28.30
2022-07-29T15:36:55.100Z,28.40
2022-07-29T15:39:23.568Z,28.40
2022-07-29T15:41:52.251Z,28.50
2022-07-29T15:44:21.087Z,28.50
2022-07-29T15:47:07.741Z,28.50
2022-07-29T15:49:47.038Z,28.10
2022-07-29T15:52:17.692Z,27.50
2022-07-29T15:54:46.110Z,26.90
2022-07-29T15:57:14.583Z,26.50
2022-07-29T15:59:43.150Z,26.30
2022-07-29T16:02:11.793Z,25.90
2022-07-29T16:04:41.697Z,25.80
2022-07-29T16:07:10.222Z,25.80
2022-07-29T16:09:38.905Z,25.60
2022-07-29T16:12:15.013Z,25.40
2022-07-29T16:14:45.442Z,25.20
2022-07-29T16:17:14.785Z,25.20
2022-07-29T16:19:45.703Z,25.20
2022-07-29T16:22:14.243Z,25.20
2022-07-29T16:24:42.751Z,25.10
2022-07-29T16:27:11.211Z,25.10
2022-07-29T16:29:39.889Z,25.10
2022-07-29T16:32:09.027Z,25.00
2022-07-29T16:34:37.609Z,25.00
2022-07-29T16:37:07.541Z,25.00
2022-07-29T16:39:36.063Z,25.00
2022-07-29T16:42:05.589Z,25.10
2022-07-29T16:44:34.827Z,25.00
2022-07-29T16:47:03.915Z,25.10
2022-07-29T16:49:33.145Z,25.10
2022-07-29T16:52:02.131Z,25.10
2022-07-29T16:54:32.206Z,25.10
2022-07-29T16:57:02.441Z,25.10
2022-07-29T16:59:31.057Z,25.20
2022-07-29T17:02:02.722Z,25.20
2022-07-29T17:04:32.098Z,25.20
2022-07-29T17:07:01.717Z,25.10
2022-07-29T17:09:32.898Z,25.10
2022-07-29T17:12:01.403Z,25.10
2022-07-29T17:14:31.181Z,25.20
2022-07-29T17:17:02.187Z,25.20
2022-07-29T17:19:32.148Z,25.30
2022-07-29T17:22:10.514Z,25.30
2022-07-29T17:24:44.219Z,25.30
2022-07-29T17:27:12.641Z,25.30
2022-07-29T17:29:41.639Z,25.30
2022-07-29T17:32:10.462Z,25.30
2022-07-29T17:34:39.583Z,25.30
2022-07-29T17:37:09.619Z,25.20
2022-07-29T17:39:40.863Z,25.20
2022-07-29T17:42:11.062Z,25.20
2022-07-29T17:44:39.611Z,25.20
2022-07-29T17:47:15.669Z,25.20
2022-07-29T17:49:46.103Z,25.10
2022-07-29T17:52:16.305Z,25.00
2022-07-29T17:54:49.836Z,25.00
2022-07-29T17:57:20.293Z,25.00
2022-07-29T17:59:48.730Z,25.00
2022-07-29T18:02:18.195Z,24.90
2022-07-29T18:04:50.557Z,24.80
2022-07-29T18:07:20.724Z,24.80
2022-07-29T18:09:49.662Z,24.80
2022-07-29T18:12:20.932Z,24.80
2022-07-29T18:14:49.452Z,24.80
2022-07-29T18:17:18.554Z,24.80
2022-07-29T18:19:46.942Z,24.70
2022-07-29T18:22:15.885Z,24.70
2022-07-29T18:24:44.861Z,24.70
2022-07-29T18:27:13.841Z,24.70
2022-07-29T18:29:45.131Z,24.70
2022-07-29T18:32:20.103Z,24.60
2022-07-29T18:34:57.761Z,24.60
2022-07-29T18:38:02.111Z,24.70
2022-07-29T18:40:14.801Z,24.70
2022-07-29T18:42:43.770Z,24.60
2022-07-29T18:45:19.109Z,24.60
2022-07-29T18:47:49.560Z,24.50
2022-07-29T18:50:19.570Z,24.50
2022-07-29T18:52:48.091Z,24.40
2022-07-29T18:55:16.960Z,24.40
2022-07-29T18:57:56.251Z,24.30
2022-07-29T19:00:27.559Z,24.20
2022-07-29T19:02:57.924Z,24.10
2022-07-29T19:05:26.860Z,24.10
2022-07-29T19:07:56.634Z,24.10
2022-07-29T19:10:25.351Z,24.10
2022-07-29T19:12:54.553Z,24.00
2022-07-29T19:15:23.471Z,24.00
2022-07-29T19:17:57.702Z,24.00
2022-07-29T19:20:29.732Z,24.00
2022-07-29T19:22:58.803Z,23.90
2022-07-29T19:25:27.604Z,23.90
2022-07-29T19:27:56.401Z,23.90
2022-07-29T19:30:25.267Z,24.00
2022-07-29T19:32:55.460Z,23.80
2022-07-29T19:35:32.740Z,23.80
2022-07-29T19:38:01.973Z,23.70
2022-07-29T19:40:31.680Z,23.80
2022-07-29T19:43:00.931Z,23.70
2022-07-29T19:45:30.689Z,23.70
2022-07-29T19:48:05.491Z,23.60
2022-07-29T19:50:36.312Z,23.60
2022-07-29T19:53:05.231Z,23.60
2022-07-29T19:55:34.000Z,23.50
2022-07-29T19:58:04.730Z,23.50
2022-07-29T20:00:37.451Z,23.50
2022-07-29T20:03:10.370Z,23.50
2022-07-29T20:05:39.271Z,23.50
2022-07-29T20:08:08.130Z,23.50
2022-07-29T20:10:36.618Z,23.40
2022-07-29T20:13:05.611Z,23.40
2022-07-29T20:15:34.134Z,23.40
2022-07-29T20:18:04.239Z,23.40
2022-07-29T20:20:35.561Z,23.40
2022-07-29T20:23:05.711Z,23.40
2022-07-29T20:25:37.121Z,23.30
2022-07-29T20:28:05.889Z,23.30
2022-07-29T20:30:34.506Z,23.40
2022-07-29T20:33:07.241Z,23.40
2022-07-29T20:35:37.781Z,23.30
2022-07-29T20:38:07.612Z,23.30
2022-07-29T20:40:37.641Z,23.30
2022-07-29T20:43:09.310Z,23.20
2022-07-29T20:45:56.574Z,23.20
2022-07-29T20:48:27.470Z,23.20
2022-07-29T20:54:36.933Z,23.20
2022-07-29T21:00:33.915Z,23.10
2022-07-29T21:03:05.143Z,23.00
2022-07-29T21:05:34.823Z,22.80
2022-07-29T21:08:05.921Z,22.80
2022-07-29T21:10:34.371Z,22.70
2022-07-29T21:13:04.891Z,22.60
2022-07-29T21:15:33.723Z,22.60
2022-07-29T21:18:03.177Z,22.60
2022-07-29T21:20:33.820Z,22.50
2022-07-29T21:23:02.796Z,22.50
2022-07-29T21:25:34.612Z,22.40
2022-07-29T21:28:27.905Z,22.30
2022-07-29T21:30:57.256Z,22.20
2022-07-29T21:33:26.380Z,21.90
2022-07-29T21:36:20.171Z,21.80
2022-07-29T21:38:44.818Z,21.80
2022-07-29T21:41:15.770Z,21.70
2022-07-29T21:43:44.322Z,21.80
2022-07-29T21:46:16.866Z,21.80
2022-07-29T21:48:46.014Z,21.70
2022-07-29T21:51:16.237Z,21.60
2022-07-29T21:53:45.119Z,21.40
2022-07-29T21:56:15.254Z,21.40
2022-07-29T21:58:47.824Z,21.40
2022-07-29T22:01:18.819Z,21.20
2022-07-29T22:03:47.575Z,20.90
2022-07-29T22:06:20.332Z,20.60
2022-07-29T22:08:49.350Z,20.50
2022-07-29T22:11:20.275Z,20.40
2022-07-29T22:13:49.384Z,20.30
2022-07-29T22:16:19.763Z,20.20
2022-07-29T22:19:08.629Z,20.10
2022-07-29T22:21:38.757Z,20.00
2022-07-29T22:24:10.230Z,19.90
2022-07-29T22:26:38.685Z,19.80
2022-07-29T22:29:07.325Z,19.80
2022-07-29T22:31:36.364Z,19.70
2022-07-29T22:34:04.767Z,19.80
2022-07-29T22:36:33.235Z,19.70
2022-07-29T22:39:03.105Z,19.80
2022-07-29T22:41:31.494Z,19.70
2022-07-29T22:44:02.335Z,19.60
2022-07-29T22:46:34.884Z,19.60
2022-07-29T22:49:05.740Z,19.60
2022-07-29T22:51:34.322Z,19.50
2022-07-29T22:54:06.443Z,19.50
2022-07-29T22:56:35.980Z,19.50
2022-07-29T22:59:04.433Z,19.50
2022-07-29T23:01:37.284Z,19.40
2022-07-29T23:04:06.746Z,19.40
2022-07-29T23:06:35.383Z,19.40
2022-07-29T23:09:04.168Z,19.40
2022-07-29T23:11:34.083Z,19.40
2022-07-29T23:14:02.502Z,19.40
2022-07-29T23:16:31.038Z,19.60
2022-07-29T23:18:59.443Z,19.50
2022-07-29T23:21:27.923Z,19.40
2022-07-29T23:23:56.373Z,19.40
2022-07-29T23:26:24.845Z,19.40
2022-07-29T23:28:54.882Z,19.40
2022-07-29T23:31:23.352Z,19.40
2022-07-29T23:33:52.843Z,19.30
2022-07-29T23:36:22.222Z,19.30
2022-07-29T23:38:50.682Z,19.30
2022-07-29T23:41:19.356Z,19.40
2022-07-29T23:43:49.932Z,19.50
2022-07-29T23:46:23.937Z,19.50
2022-07-29T23:48:52.703Z,19.50
2022-07-29T23:51:21.323Z,19.50
2022-07-29T23:53:53.035Z,19.60
2022-07-29T23:56:22.783Z,19.40
2022-07-29T23:58:51.233Z,19.40
